createdAt,value
2023-03-11T00:12:43.940Z,73.9
2023-03-11T00:32:43.944Z,71.9
2023-03-11T00:52:43.953Z,73.6
2023-03-11T01:12:43.965Z,74.7
2023-03-11T01:32:43.962Z,72.0
2023-03-11T01:52:43.969Z,71.9
2023-03-11T02:12:43.965Z,72.7
2023-03-11T02:32:43.996Z,73.5
2023-03-11T02:52:43.978Z,74.6
2023-03-11T03:12:43.984Z,73.4
2023-03-11T03:32:43.990Z,74.6
2023-03-11T03:52:44.003Z,77.4
2023-03-11T04:12:44.005Z,75.6
2023-03-11T04:32:44.002Z,76.1
2023-03-11T04:52:43.999Z,76.5
2023-03-11T05:12:44.012Z,77.3
2023-03-11T05:32:44.020Z,78.0
2023-03-11T05:52:44.052Z,78.1
2023-03-11T06:12:44.036Z,77.5
2023-03-11T06:32:44.036Z,77.5
2023-03-11T06:52:44.066Z,75.0
2023-03-11T07:12:44.048Z,74.0
2023-03-11T07:32:44.051Z,73.9
2023-03-11T07:52:44.065Z,72.7
2023-03-11T08:12:44.065Z,71.2
2023-03-11T08:32:44.081Z,69.5
2023-03-11T08:52:44.085Z,68.8
2023-03-11T09:12:44.099Z,67.5
2023-03-11T09:32:44.009Z,67.0
2023-03-11T09:52:44.026Z,63.5
2023-03-11T10:12:44.034Z,67.0
2023-03-11T10:32:44.051Z,63.8
2023-03-11T10:52:44.049Z,60.5
2023-03-11T11:12:44.067Z,63.5
2023-03-11T11:32:44.082Z,64.9
2023-03-11T11:52:43.993Z,63.7
2023-03-11T12:12:44.016Z,59.0
2023-03-11T12:32:44.039Z,59.1
2023-03-11T12:52:44.049Z,65.1
2023-03-11T13:12:44.075Z,64.6
2023-03-11T13:32:43.982Z,65.7
2023-03-11T13:52:44.140Z,63.1
2023-03-11T14:12:44.022Z,63.1
2023-03-11T14:32:44.033Z,66.6
2023-03-11T14:52:44.050Z,64.8
2023-03-11T15:12:43.995Z,64.2
2023-03-11T15:32:43.997Z,65.8
2023-03-11T15:52:43.998Z,67.7
2023-03-11T16:12:44.095Z,68.9
2023-03-11T16:32:44.055Z,68.8
2023-03-11T16:52:43.956Z,69.5
2023-03-11T17:12:43.969Z,71.1
2023-03-11T17:32:43.981Z,70.7
2023-03-11T17:52:44.003Z,68.7
2023-03-11T18:12:44.020Z,69.2
2023-03-11T18:32:44.017Z,70.4
2023-03-11T18:52:44.050Z,70.1
2023-03-11T19:12:43.996Z,72.2
2023-03-11T19:32:43.999Z,74.7
2023-03-11T19:52:44.006Z,73.2
2023-03-11T20:12:44.037Z,74.6
2023-03-11T20:32:44.022Z,76.5
2023-03-11T20:52:44.025Z,80.3
2023-03-11T21:12:44.081Z,81.4
2023-03-11T21:32:44.039Z,81.4
2023-03-11T21:52:44.082Z,82.1
2023-03-11T22:12:44.052Z,80.2
2023-03-11T22:32:44.059Z,82.1
2023-03-11T22:52:44.060Z,81.2
2023-03-11T23:12:44.092Z,82.5
2023-03-11T23:32:44.101Z,84.3
2023-03-11T23:52:44.111Z,85.0
